createdAt,value
2023-01-31T00:03:44.021Z,19.93
2023-01-31T00:08:47.238Z,19.92
2023-01-31T00:13:51.368Z,19.88
2023-01-31T00:18:54.096Z,19.86
2023-01-31T00:23:57.245Z,19.82
2023-01-31T00:29:02.983Z,19.77
2023-01-31T00:34:05.764Z,19.68
2023-01-31T00:39:08.777Z,19.66
2023-01-31T00:44:12.992Z,19.64
2023-01-31T00:49:15.831Z,19.61
2023-01-31T00:54:18.650Z,19.56
2023-01-31T00:59:22.922Z,19.50
2023-01-31T01:04:25.702Z,19.43
2023-01-31T01:09:28.465Z,19.39
2023-01-31T01:14:33.037Z,19.31
2023-01-31T01:19:36.058Z,19.27
2023-01-31T01:24:42.783Z,19.23
2023-01-31T01:29:46.909Z,19.19
2023-01-31T01:34:49.713Z,19.12
2023-01-31T01:39:52.911Z,19.09
2023-01-31T01:44:57.881Z,19.03
2023-01-31T01:50:02.139Z,18.94
2023-01-31T01:55:07.380Z,18.95
2023-01-31T02:00:15.384Z,18.93
2023-01-31T02:05:19.943Z,18.90
2023-01-31T02:10:25.379Z,18.86
2023-01-31T02:15:29.605Z,18.83
2023-01-31T02:21:15.116Z,18.82
2023-01-31T02:26:36.065Z,18.76
2023-01-31T02:32:16.483Z,18.73
2023-01-31T02:37:24.358Z,18.70
2023-01-31T02:42:31.355Z,18.68
2023-01-31T02:47:45.757Z,18.65
2023-01-31T02:52:54.112Z,18.62
2023-01-31T02:57:58.126Z,18.56
2023-01-31T03:03:00.926Z,18.56
2023-01-31T03:08:06.344Z,18.53
2023-01-31T03:13:20.669Z,18.51
2023-01-31T03:18:24.672Z,18.48
2023-01-31T03:23:36.176Z,18.47
2023-01-31T03:28:42.116Z,18.43
2023-01-31T03:33:45.978Z,18.39
2023-01-31T03:38:52.652Z,18.40
2023-01-31T03:43:59.385Z,18.37
2023-01-31T03:49:02.652Z,18.37
2023-01-31T03:54:08.363Z,18.34
2023-01-31T03:59:13.517Z,18.32
2023-01-31T04:04:19.075Z,18.33
2023-01-31T04:09:23.492Z,18.29
2023-01-31T04:14:26.467Z,18.26
2023-01-31T04:19:29.355Z,18.24
2023-01-31T04:24:33.484Z,18.24
2023-01-31T04:29:36.658Z,18.22
2023-01-31T04:34:39.489Z,18.19
2023-01-31T04:39:43.791Z,18.16
2023-01-31T04:44:46.862Z,18.14
2023-01-31T04:49:49.690Z,18.12
2023-01-31T04:54:53.885Z,18.11
2023-01-31T04:59:56.718Z,18.11
2023-01-31T05:04:59.697Z,18.09
2023-01-31T05:10:03.876Z,18.08
2023-01-31T05:15:08.248Z,18.08
2023-01-31T05:20:12.413Z,18.06
2023-01-31T05:25:17.006Z,18.04
2023-01-31T05:30:19.955Z,18.03
2023-01-31T05:35:23.242Z,18.02
2023-01-31T05:40:27.589Z,18.01
2023-01-31T05:45:31.207Z,17.99
2023-01-31T05:50:34.160Z,18.00
2023-01-31T05:55:46.337Z,17.99
2023-01-31T06:00:49.294Z,17.98
2023-01-31T06:05:52.068Z,17.96
2023-01-31T06:10:56.396Z,17.96
2023-01-31T06:15:59.471Z,17.95
2023-01-31T06:21:02.254Z,17.94
2023-01-31T06:26:06.555Z,17.92
2023-01-31T06:31:09.659Z,17.92
2023-01-31T06:36:12.697Z,17.94
2023-01-31T06:41:16.912Z,17.92
2023-01-31T06:46:19.775Z,17.91
2023-01-31T06:51:22.781Z,17.88
2023-01-31T06:56:27.013Z,17.85
2023-01-31T07:01:30.332Z,17.84
2023-01-31T07:06:33.224Z,17.82
2023-01-31T07:11:38.115Z,17.82
2023-01-31T07:16:40.945Z,17.82
2023-01-31T07:21:44.394Z,17.79
2023-01-31T07:26:48.858Z,17.78
2023-01-31T07:31:51.706Z,17.77
2023-01-31T07:36:54.486Z,17.74
2023-01-31T07:41:58.670Z,17.74
2023-01-31T07:47:01.575Z,17.72
2023-01-31T07:52:04.495Z,17.70
2023-01-31T07:57:08.994Z,17.69
2023-01-31T08:02:30.677Z,17.69
2023-01-31T08:07:33.523Z,17.80
2023-01-31T08:12:37.717Z,18.04
2023-01-31T08:17:40.503Z,18.25
2023-01-31T08:22:43.420Z,18.39
2023-01-31T08:27:47.791Z,17.24
2023-01-31T08:32:50.581Z,16.48
2023-01-31T08:38:00.900Z,16.52
2023-01-31T08:43:11.270Z,17.33
2023-01-31T08:48:14.955Z,17.81
2023-01-31T08:53:17.710Z,18.14
2023-01-31T08:58:21.906Z,18.36
2023-01-31T09:03:24.831Z,18.58
2023-01-31T09:08:27.707Z,18.74
2023-01-31T09:13:32.385Z,18.90
2023-01-31T09:18:35.433Z,19.03
2023-01-31T09:23:41.722Z,19.12
2023-01-31T09:28:46.465Z,19.18
2023-01-31T09:33:49.353Z,19.25
2023-01-31T09:38:54.954Z,19.31
2023-01-31T09:44:00.112Z,19.37
2023-01-31T09:49:06.033Z,19.43
2023-01-31T09:54:14.871Z,19.50
2023-01-31T09:59:21.230Z,19.51
2023-01-31T10:04:31.006Z,19.53
2023-01-31T10:09:36.325Z,19.56
2023-01-31T10:14:42.326Z,19.62
2023-01-31T10:19:48.548Z,19.65
2023-01-31T10:24:54.368Z,19.68
2023-01-31T10:29:58.457Z,19.73
2023-01-31T10:35:03.006Z,19.76
2023-01-31T10:40:07.338Z,19.76
2023-01-31T10:45:15.067Z,19.78
2023-01-31T10:50:19.201Z,19.83
2023-01-31T10:55:36.215Z,19.86
2023-01-31T11:00:40.427Z,19.86
2023-01-31T11:05:47.275Z,19.85
2023-01-31T11:10:52.082Z,19.87
2023-01-31T11:15:56.635Z,19.90
2023-01-31T11:20:59.533Z,19.90
2023-01-31T11:26:02.339Z,19.89
2023-01-31T11:31:08.682Z,19.91
2023-01-31T11:36:12.966Z,19.93
2023-01-31T11:41:30.263Z,19.92
2023-01-31T11:46:35.260Z,19.95
2023-01-31T11:51:38.030Z,19.96
2023-01-31T11:56:40.937Z,19.97
2023-01-31T12:01:47.606Z,20.00
2023-01-31T12:06:58.548Z,20.02
2023-01-31T12:12:02.704Z,20.01
2023-01-31T12:17:07.138Z,20.09
2023-01-31T12:22:12.940Z,20.12
2023-01-31T12:27:22.084Z,20.10
2023-01-31T12:32:33.273Z,20.13
2023-01-31T12:37:40.826Z,20.18
2023-01-31T12:42:51.113Z,20.19
2023-01-31T12:48:20.505Z,20.20
2023-01-31T12:53:32.911Z,20.22
2023-01-31T12:58:41.749Z,20.23
2023-01-31T13:04:12.006Z,20.23
2023-01-31T13:09:18.848Z,20.22
2023-01-31T13:14:22.708Z,20.19
2023-01-31T13:19:27.859Z,20.20
2023-01-31T13:24:34.021Z,20.20
2023-01-31T13:29:39.645Z,20.20
2023-01-31T13:34:51.216Z,20.19
2023-01-31T13:39:55.612Z,20.21
2023-01-31T13:45:04.729Z,20.23
2023-01-31T13:50:12.563Z,20.22
2023-01-31T13:55:16.762Z,20.22
2023-01-31T14:00:32.953Z,20.21
2023-01-31T14:05:52.697Z,20.16
2023-01-31T14:10:55.575Z,20.19
2023-01-31T14:15:58.832Z,20.23
2023-01-31T14:21:32.321Z,20.22
2023-01-31T14:26:38.609Z,20.21
2023-01-31T14:31:41.487Z,20.19
2023-01-31T14:36:52.619Z,20.23
2023-01-31T14:42:15.633Z,20.16
2023-01-31T14:47:28.034Z,20.17
2023-01-31T14:52:41.379Z,20.17
2023-01-31T14:57:45.352Z,20.03
2023-01-31T15:02:50.226Z,19.97
2023-01-31T15:08:02.459Z,19.96
2023-01-31T15:13:49.770Z,19.96
2023-01-31T15:19:00.728Z,20.03
2023-01-31T15:24:05.419Z,19.95
2023-01-31T15:29:08.240Z,19.91
2023-01-31T15:34:15.450Z,19.96
2023-01-31T15:39:22.886Z,19.92
2023-01-31T15:44:26.586Z,19.95
2023-01-31T15:49:40.098Z,19.94
2023-01-31T15:54:54.453Z,20.03
2023-01-31T15:59:57.313Z,19.98
2023-01-31T16:05:00.293Z,20.02
2023-01-31T16:10:05.115Z,20.07
2023-01-31T16:15:08.881Z,20.14
2023-01-31T16:20:39.818Z,20.26
2023-01-31T16:25:43.983Z,20.27
2023-01-31T16:30:47.119Z,20.30
2023-01-31T16:36:12.785Z,20.37
2023-01-31T16:41:45.159Z,20.49
2023-01-31T16:46:48.679Z,20.37
2023-01-31T16:51:51.619Z,20.33
2023-01-31T16:57:09.383Z,20.47
2023-01-31T17:02:14.959Z,20.38
2023-01-31T17:07:19.215Z,20.36
2023-01-31T17:12:25.682Z,20.32
2023-01-31T17:17:29.313Z,20.30
2023-01-31T17:22:32.251Z,20.26
2023-01-31T17:27:36.354Z,20.22
2023-01-31T17:32:40.148Z,20.17
2023-01-31T17:37:42.911Z,20.14
2023-01-31T17:42:47.186Z,20.18
2023-01-31T17:47:50.174Z,20.15
2023-01-31T17:52:53.158Z,20.21
2023-01-31T17:57:57.373Z,20.18
2023-01-31T18:03:00.386Z,20.16
2023-01-31T18:08:05.150Z,20.17
2023-01-31T18:13:09.423Z,20.13
2023-01-31T18:18:12.179Z,20.21
2023-01-31T18:23:15.027Z,20.13
2023-01-31T18:28:19.399Z,20.15
2023-01-31T18:33:23.954Z,20.21
2023-01-31T18:38:27.480Z,20.11
2023-01-31T18:43:31.878Z,20.11
2023-01-31T18:48:37.450Z,20.11
2023-01-31T18:53:40.875Z,20.08
2023-01-31T18:58:45.554Z,20.11
2023-01-31T19:03:49.971Z,20.12
2023-01-31T19:08:52.918Z,20.13
2023-01-31T19:13:57.558Z,20.12
2023-01-31T19:19:00.493Z,20.12
2023-01-31T19:24:04.052Z,20.16
2023-01-31T19:29:09.807Z,20.14
2023-01-31T19:34:13.149Z,20.16
2023-01-31T19:39:15.985Z,20.07
2023-01-31T19:44:20.660Z,20.13
2023-01-31T19:49:23.595Z,20.16
2023-01-31T19:54:28.006Z,20.10
2023-01-31T19:59:33.465Z,20.05
2023-01-31T20:04:36.425Z,20.05
2023-01-31T20:09:39.291Z,20.07
2023-01-31T20:14:43.587Z,20.09
2023-01-31T20:19:46.589Z,20.03
2023-01-31T20:24:49.647Z,20.10
2023-01-31T20:29:54.025Z,20.21
2023-01-31T20:34:56.978Z,20.33
2023-01-31T20:40:00.525Z,20.17
2023-01-31T20:45:05.980Z,20.16
2023-01-31T20:50:10.308Z,20.03
2023-01-31T20:55:15.620Z,20.10
2023-01-31T21:00:22.082Z,20.11
2023-01-31T21:05:25.073Z,20.15
2023-01-31T21:10:28.817Z,20.03
2023-01-31T21:15:33.120Z,20.02
2023-01-31T21:20:36.238Z,20.03
2023-01-31T21:25:39.183Z,20.03
2023-01-31T21:30:44.707Z,20.06
2023-01-31T21:35:47.651Z,20.09
2023-01-31T21:41:10.675Z,20.21
2023-01-31T21:46:15.518Z,20.24
2023-01-31T21:51:19.012Z,20.27
2023-01-31T21:56:22.711Z,20.27
2023-01-31T22:01:27.692Z,20.22
2023-01-31T22:06:34.936Z,20.22
2023-01-31T22:11:38.156Z,20.25
2023-01-31T22:16:42.560Z,20.23
2023-01-31T22:21:45.383Z,20.19
2023-01-31T22:26:48.205Z,20.19
2023-01-31T22:31:54.790Z,20.20
2023-01-31T22:36:57.665Z,20.18
2023-01-31T22:42:00.557Z,20.18
2023-01-31T22:47:04.792Z,20.20
2023-01-31T22:52:07.540Z,20.20
2023-01-31T22:57:10.343Z,20.19
2023-01-31T23:02:14.704Z,20.15
2023-01-31T23:07:17.505Z,20.10
2023-01-31T23:12:20.325Z,20.09
2023-01-31T23:17:39.469Z,20.07
2023-01-31T23:22:42.617Z,20.06
2023-01-31T23:27:45.395Z,20.06
2023-01-31T23:32:49.740Z,20.05
2023-01-31T23:37:52.532Z,20.03
2023-01-31T23:42:55.402Z,20.04
2023-01-31T23:47:59.487Z,20.03
2023-01-31T23:53:02.252Z,20.02
2023-01-31T23:58:05.115Z,19.99
